Terminal Aerodrome Forecast
Issued by NWS Flagstaff, AZ

Home | Current Version | Previous Version | Text Only | Print | Product List | Glossary On
Versions: 1 2 3 4 5 6 7 8 9 10 11 12 13 14
000
FTUS45 KFGZ 240700 AAA
TAFFLG
TAF AMD
KFLG 240743Z 2408/2506 VRB02KT P6SM FEW250
     FM241000 00000KT 4SM FU FEW250
     FM241300 VRB03KT 6SM FU SKC
     FM241700 20010KT P6SM SKC=

USA.gov is the U.S. government's official web portal to all federal, state and local government web resources and services.